Terminal Aerodrome Forecast
Issued by NWS Atlanta, GA

Home | Current Version | Previous Version | Text Only | Print | Product List | Glossary On
Versions: 1 2 3 4 5 6 7 8 9 10 11 12 13 14 15 16 17
000
FTUS42 KFFC 241544 AAA
TAFCSG
TAF AMD
KCSG 241544Z 2416/2512 15010G17KT P6SM BKN025
     FM241800 15010G17KT P6SM BKN040
     FM242200 11007KT P6SM SCT050
     FM250240 12010KT P6SM BKN080
     FM250700 13009G14KT P6SM BKN012
     FM250900 12006KT P6SM SCT008 BKN012=

USA.gov is the U.S. government's official web portal to all federal, state and local government web resources and services.